createdAt,value
2023-01-19T00:00:29.217Z,2.00
2023-01-19T00:03:51.897Z,1.05
2023-01-19T00:06:54.381Z,2.63
2023-01-19T00:09:56.875Z,0.70
2023-01-19T00:12:59.547Z,1.63
2023-01-19T00:16:03.389Z,1.48
2023-01-19T00:19:06.997Z,2.13
2023-01-19T00:22:09.640Z,0.82
2023-01-19T00:25:12.171Z,2.03
2023-01-19T00:28:17.995Z,1.70
2023-01-19T00:31:21.950Z,1.80
2023-01-19T00:34:24.303Z,2.23
2023-01-19T00:37:28.329Z,1.20
2023-01-19T00:40:30.729Z,1.30
2023-01-19T00:43:35.746Z,1.73
2023-01-19T00:46:38.795Z,2.60
2023-01-19T00:49:41.703Z,5.40
2023-01-19T00:52:45.189Z,5.07
2023-01-19T00:55:48.004Z,5.85
2023-01-19T00:58:51.470Z,2.97
2023-01-19T01:01:54.722Z,2.80
2023-01-19T01:04:57.165Z,1.20
2023-01-19T01:08:00.743Z,5.68
2023-01-19T01:11:03.892Z,6.63
2023-01-19T01:14:07.051Z,4.32
2023-01-19T01:17:11.884Z,6.47
2023-01-19T01:20:19.225Z,12.70
2023-01-19T01:23:23.300Z,6.57
2023-01-19T01:26:27.789Z,7.90
2023-01-19T01:29:31.657Z,11.60
2023-01-19T01:32:34.569Z,5.90
2023-01-19T01:35:37.004Z,9.90
2023-01-19T01:38:42.217Z,10.15
2023-01-19T01:41:46.434Z,11.45
2023-01-19T01:44:58.311Z,11.65
2023-01-19T01:48:10.113Z,12.23
2023-01-19T01:51:26.466Z,12.45
2023-01-19T01:54:32.308Z,8.50
2023-01-19T01:57:38.436Z,8.50
2023-01-19T02:00:59.997Z,13.65
2023-01-19T02:04:03.042Z,7.78
2023-01-19T02:07:24.675Z,11.27
2023-01-19T02:10:46.215Z,10.50
2023-01-19T02:13:48.801Z,8.15
2023-01-19T02:16:51.833Z,6.63
2023-01-19T02:19:54.548Z,6.00
2023-01-19T02:23:03.884Z,11.75
2023-01-19T02:26:07.655Z,6.70
2023-01-19T02:29:14.009Z,12.52
2023-01-19T02:32:17.056Z,10.18
2023-01-19T02:35:20.905Z,11.63
2023-01-19T02:38:27.396Z,12.35
2023-01-19T02:41:38.989Z,13.27
2023-01-19T02:44:46.035Z,13.95
2023-01-19T02:47:51.497Z,10.70
2023-01-19T02:51:04.709Z,17.10
2023-01-19T02:54:24.004Z,12.18
2023-01-19T02:57:29.084Z,11.73
2023-01-19T03:00:46.162Z,14.05
2023-01-19T03:03:56.122Z,18.50
2023-01-19T03:07:24.787Z,12.20
2023-01-19T03:10:54.987Z,13.48
2023-01-19T03:14:22.427Z,9.48
2023-01-19T03:17:26.131Z,3.10
2023-01-19T03:20:29.125Z,5.05
2023-01-19T03:23:33.011Z,3.78
2023-01-19T03:26:44.162Z,2.67
2023-01-19T03:29:51.878Z,3.30
2023-01-19T03:33:08.701Z,3.20
2023-01-19T03:36:24.343Z,4.05
2023-01-19T05:50:00.427Z,21.25
2023-01-19T05:53:05.451Z,18.05
2023-01-19T05:56:09.594Z,17.58
2023-01-19T05:59:11.870Z,18.38
2023-01-19T06:02:16.319Z,13.52
2023-01-19T06:05:18.833Z,20.25
2023-01-19T06:08:21.987Z,13.13
2023-01-19T06:11:24.463Z,15.80
2023-01-19T06:14:28.602Z,14.70
2023-01-19T06:17:32.854Z,21.10
2023-01-19T06:20:36.137Z,12.20
2023-01-19T06:23:38.856Z,10.77
2023-01-19T06:26:45.596Z,13.13
2023-01-19T06:29:48.790Z,13.55
2023-01-19T06:32:54.169Z,17.67
2023-01-19T06:35:58.612Z,17.00
2023-01-19T06:39:05.446Z,16.33
2023-01-19T06:42:08.400Z,18.48
2023-01-19T06:45:12.216Z,16.05
2023-01-19T06:48:14.548Z,13.25
2023-01-19T06:51:17.210Z,13.90
2023-01-19T06:54:19.590Z,16.02
2023-01-19T06:57:22.281Z,14.48
2023-01-19T07:00:24.634Z,11.98
2023-01-19T07:03:27.219Z,21.88
2023-01-19T07:06:29.530Z,17.73
2023-01-19T07:09:32.085Z,14.57
2023-01-19T07:12:35.507Z,9.10
2023-01-19T07:15:38.127Z,14.97
2023-01-19T07:18:41.552Z,11.02
2023-01-19T07:21:44.940Z,10.60
2023-01-19T07:24:47.027Z,17.30
2023-01-19T07:27:49.742Z,11.60
2023-01-19T07:30:53.344Z,15.15
2023-01-19T07:33:58.286Z,6.03
2023-01-19T07:37:01.604Z,8.20
2023-01-19T07:40:05.895Z,7.70
2023-01-19T07:43:10.170Z,8.80
2023-01-19T07:46:13.504Z,5.57
2023-01-19T07:49:16.028Z,2.22
2023-01-19T07:52:18.868Z,8.23
2023-01-19T07:55:22.272Z,6.43
2023-01-19T07:58:25.455Z,10.00
2023-01-19T08:01:30.493Z,6.10
2023-01-19T08:04:33.109Z,5.60
2023-01-19T08:07:37.001Z,1.70
2023-01-19T08:10:40.102Z,4.10
2023-01-19T08:13:43.613Z,6.05
2023-01-19T08:16:49.626Z,3.07
2023-01-19T08:19:51.790Z,3.17
2023-01-19T08:23:00.697Z,5.00
2023-01-19T08:26:34.112Z,5.88
2023-01-19T08:29:37.128Z,5.03
2023-01-19T08:32:40.096Z,8.70
2023-01-19T08:35:49.457Z,3.05
2023-01-19T08:38:52.144Z,4.47
2023-01-19T08:41:56.587Z,4.47
2023-01-19T08:44:58.802Z,6.72
2023-01-19T08:48:02.011Z,3.25
2023-01-19T08:51:04.463Z,4.97
2023-01-19T08:54:07.493Z,2.10
2023-01-19T08:57:09.662Z,5.43
2023-01-19T09:00:13.168Z,5.25
2023-01-19T09:03:15.383Z,2.28
2023-01-19T09:06:19.569Z,2.25
2023-01-19T09:09:23.811Z,4.40
2023-01-19T09:12:26.455Z,3.08
2023-01-19T09:15:28.623Z,4.53
2023-01-19T09:18:31.890Z,5.05
2023-01-19T09:21:35.850Z,3.55
2023-01-19T09:24:38.303Z,1.98
2023-01-19T09:27:40.259Z,2.50
2023-01-19T09:30:44.088Z,3.42
2023-01-19T09:33:47.032Z,1.93
2023-01-19T09:36:49.503Z,8.48
2023-01-19T09:39:51.583Z,5.78
2023-01-19T09:43:12.143Z,1.75
2023-01-19T09:46:26.357Z,3.40
2023-01-19T09:52:37.393Z,3.03
2023-01-19T09:55:42.831Z,5.13
2023-01-19T09:58:46.199Z,1.48
2023-01-19T10:02:04.358Z,2.40
2023-01-19T10:05:25.692Z,3.03
2023-01-19T10:08:43.349Z,3.03
2023-01-19T10:11:55.000Z,2.80
2023-01-19T10:15:26.645Z,2.38
2023-01-19T10:18:51.762Z,2.65
2023-01-19T10:22:00.288Z,3.28
2023-01-19T10:25:06.341Z,4.63
2023-01-19T10:28:13.651Z,3.95
2023-01-19T10:31:19.708Z,3.17
2023-01-19T10:34:23.958Z,2.45
2023-01-19T10:37:32.209Z,2.22
2023-01-19T10:40:54.084Z,2.17
2023-01-19T10:44:04.542Z,1.45
2023-01-19T10:47:18.680Z,1.63
2023-01-19T10:50:30.834Z,4.43
2023-01-19T10:53:33.326Z,2.05
2023-01-19T10:56:38.021Z,2.83
2023-01-19T10:59:51.281Z,3.08
2023-01-19T11:02:53.640Z,2.38
2023-01-19T11:06:24.490Z,3.28
2023-01-19T11:09:26.874Z,4.22
2023-01-19T11:12:31.247Z,1.85
2023-01-19T11:15:54.096Z,2.65
2023-01-19T11:18:58.216Z,2.67
2023-01-19T11:22:09.823Z,2.57
2023-01-19T11:25:31.734Z,2.95
2023-01-19T11:28:42.445Z,1.40
2023-01-19T11:31:46.273Z,2.08
2023-01-19T11:34:49.135Z,3.53
2023-01-19T11:38:23.558Z,2.28
2023-01-19T11:41:37.350Z,3.17
2023-01-19T11:44:46.571Z,0.98
2023-01-19T11:47:50.718Z,1.98
2023-01-19T11:50:54.714Z,2.03
2023-01-19T11:53:57.487Z,1.45
2023-01-19T11:57:01.432Z,1.95
2023-01-19T12:00:22.860Z,1.30
2023-01-19T12:03:31.007Z,3.13
2023-01-19T12:06:41.956Z,1.15
2023-01-19T12:09:50.150Z,4.22
2023-01-19T12:12:53.391Z,3.05
2023-01-19T12:16:23.737Z,0.95
2023-01-19T12:19:36.240Z,2.72
2023-01-19T12:22:49.714Z,5.43
2023-01-19T12:26:16.581Z,2.30
2023-01-19T12:29:22.883Z,3.05
2023-01-19T12:32:35.541Z,0.98
2023-01-19T12:36:01.288Z,0.80
2023-01-19T12:39:05.069Z,1.08
2023-01-19T12:42:15.135Z,1.98
2023-01-19T12:45:23.297Z,1.52
2023-01-19T12:48:36.325Z,1.42
2023-01-19T12:51:40.382Z,3.95
2023-01-19T12:55:05.855Z,4.63
2023-01-19T12:58:19.032Z,1.05
2023-01-19T13:01:22.062Z,0.30
2023-01-19T13:04:33.379Z,6.97
2023-01-19T13:08:07.232Z,1.40
2023-01-19T13:11:18.235Z,3.05
2023-01-19T13:14:35.729Z,1.95
2023-01-19T13:17:50.067Z,1.83
2023-01-19T13:21:00.948Z,1.40
2023-01-19T13:24:06.373Z,2.42
2023-01-19T13:27:13.237Z,6.75
2023-01-19T13:30:19.819Z,6.25
2023-01-19T13:33:26.287Z,1.50
2023-01-19T13:36:41.788Z,2.63
2023-01-19T13:39:46.416Z,2.42
2023-01-19T13:42:51.625Z,1.52
2023-01-19T13:45:54.274Z,3.78
2023-01-19T13:49:03.870Z,3.10
2023-01-19T13:52:14.188Z,8.10
2023-01-19T13:55:17.795Z,5.43
2023-01-19T13:58:22.796Z,8.35
2023-01-19T14:04:33.841Z,1.08
2023-01-19T14:07:37.645Z,6.57
2023-01-19T14:13:52.531Z,1.75
2023-01-19T14:16:55.141Z,5.78
2023-01-19T14:19:59.322Z,2.22
2023-01-19T14:23:01.877Z,3.45
2023-01-19T14:26:04.472Z,3.13
2023-01-19T14:29:15.202Z,4.38
2023-01-19T14:32:21.383Z,2.13
2023-01-19T14:35:25.408Z,2.10
2023-01-19T14:38:27.545Z,2.47
2023-01-19T14:41:52.954Z,4.15
2023-01-19T14:48:02.980Z,1.67
2023-01-19T14:51:06.235Z,1.02
2023-01-19T14:54:18.810Z,4.28
2023-01-19T14:57:22.997Z,0.95
2023-01-19T15:00:27.368Z,4.45
2023-01-19T15:03:44.368Z,7.78
2023-01-19T15:06:48.643Z,4.18
2023-01-19T15:09:51.820Z,2.65
2023-01-19T15:12:55.466Z,2.88
2023-01-19T15:16:00.883Z,4.78
2023-01-19T15:19:04.197Z,2.20
2023-01-19T15:22:15.269Z,6.05
2023-01-19T15:25:21.494Z,2.78
2023-01-19T15:28:23.484Z,3.60
2023-01-19T15:31:27.022Z,7.13
2023-01-19T15:34:29.565Z,2.33
2023-01-19T15:37:33.907Z,10.55
2023-01-19T15:40:37.398Z,3.83
2023-01-19T15:43:43.485Z,2.13
2023-01-19T15:46:45.754Z,8.90
2023-01-19T15:49:49.103Z,2.65
2023-01-19T15:52:54.283Z,4.65
2023-01-19T15:56:02.070Z,3.53
2023-01-19T15:59:04.776Z,2.05
2023-01-19T16:02:07.919Z,3.30
2023-01-19T16:05:12.356Z,2.25
2023-01-19T16:08:16.339Z,2.17
2023-01-19T16:11:19.088Z,2.05
2023-01-19T16:14:26.287Z,5.10
2023-01-19T16:17:28.920Z,2.47
2023-01-19T16:20:32.336Z,2.22
2023-01-19T16:23:34.380Z,3.17
2023-01-19T16:26:37.286Z,1.45
2023-01-19T16:29:39.531Z,1.40
2023-01-19T16:32:42.806Z,1.75
2023-01-19T16:35:45.875Z,3.47
2023-01-19T16:38:49.168Z,3.08
2023-01-19T16:41:52.382Z,1.00
2023-01-19T16:44:56.004Z,4.28
2023-01-19T16:47:58.498Z,1.58
2023-01-19T16:51:06.373Z,1.50
2023-01-19T16:54:16.939Z,1.65
2023-01-19T16:57:20.027Z,1.27
2023-01-19T17:00:22.451Z,1.65
2023-01-19T17:03:28.831Z,2.45
2023-01-19T17:06:31.776Z,3.15
2023-01-19T17:09:37.073Z,1.25
2023-01-19T17:12:39.662Z,5.63
2023-01-19T17:15:42.222Z,1.77
2023-01-19T17:18:44.864Z,1.83
2023-01-19T17:21:49.186Z,2.57
2023-01-19T17:24:52.808Z,2.60
2023-01-19T17:27:55.835Z,2.95
2023-01-19T17:31:14.815Z,2.35
2023-01-19T17:34:32.782Z,3.88
2023-01-19T17:37:35.010Z,2.92
2023-01-19T17:40:39.500Z,3.22
2023-01-19T17:43:41.872Z,2.57
2023-01-19T17:46:44.234Z,2.47
2023-01-19T17:49:46.272Z,2.00
2023-01-19T17:52:48.952Z,2.67
2023-01-19T17:55:52.650Z,3.10
2023-01-19T17:58:59.503Z,4.05
2023-01-19T18:02:01.540Z,2.15
2023-01-19T18:05:05.518Z,4.55
2023-01-19T18:08:07.728Z,2.67
2023-01-19T18:11:11.099Z,7.45
2023-01-19T18:14:13.673Z,5.25
2023-01-19T18:17:20.771Z,9.20
2023-01-19T18:20:22.830Z,6.35
2023-01-19T18:23:27.007Z,4.70
2023-01-19T18:26:29.897Z,8.00
2023-01-19T18:29:32.605Z,2.13
2023-01-19T18:32:36.018Z,3.50
2023-01-19T18:35:39.253Z,2.35
2023-01-19T18:38:42.020Z,3.75
2023-01-19T18:41:44.615Z,8.38
2023-01-19T18:44:46.595Z,6.10
2023-01-19T18:47:49.151Z,3.03
2023-01-19T18:50:51.854Z,4.05
2023-01-19T18:53:56.108Z,5.20
2023-01-19T18:56:58.655Z,3.70
2023-01-19T19:00:01.593Z,5.47
2023-01-19T19:03:08.110Z,4.60
2023-01-19T19:06:10.813Z,6.00
2023-01-19T19:09:13.112Z,5.25
2023-01-19T19:12:15.613Z,4.13
2023-01-19T19:15:18.694Z,6.13
2023-01-19T19:18:21.307Z,5.70
2023-01-19T19:21:25.662Z,4.82
2023-01-19T19:24:28.206Z,9.23
2023-01-19T19:27:31.094Z,8.48
2023-01-19T19:30:35.850Z,9.23
2023-01-19T19:33:38.880Z,6.15
2023-01-19T19:36:42.157Z,8.45
2023-01-19T19:39:44.212Z,6.68
2023-01-19T19:42:46.745Z,6.20
2023-01-19T19:46:04.050Z,6.70
2023-01-19T19:49:06.695Z,6.68
2023-01-19T19:52:09.038Z,7.25
2023-01-19T19:55:12.743Z,12.43
2023-01-19T19:58:15.176Z,12.00
2023-01-19T20:01:26.044Z,5.68
2023-01-19T20:04:29.556Z,6.78
2023-01-19T20:07:33.473Z,5.82
2023-01-19T20:10:37.380Z,7.50
2023-01-19T20:13:42.540Z,8.05
2023-01-19T20:16:44.632Z,4.95
2023-01-19T20:19:49.147Z,4.97
2023-01-19T20:22:51.110Z,3.70
2023-01-19T20:25:54.445Z,5.38
2023-01-19T20:29:03.060Z,4.80
2023-01-19T20:32:05.484Z,7.53
2023-01-19T20:35:07.684Z,3.35
2023-01-19T20:38:10.139Z,3.47
2023-01-19T20:41:13.355Z,4.47
2023-01-19T20:44:20.131Z,8.67
2023-01-19T20:47:25.817Z,2.75
2023-01-19T20:50:28.512Z,6.80
2023-01-19T20:53:32.057Z,4.50
2023-01-19T20:56:35.298Z,7.00
2023-01-19T20:59:38.809Z,3.78
2023-01-19T21:02:45.994Z,2.65
2023-01-19T21:05:48.553Z,3.53
2023-01-19T21:08:51.091Z,2.80
2023-01-19T21:11:57.371Z,9.70
2023-01-19T21:15:01.261Z,4.22
2023-01-19T21:18:03.581Z,2.28
2023-01-19T21:21:09.105Z,5.32
2023-01-19T21:24:13.081Z,3.55
2023-01-19T21:27:16.240Z,6.53
2023-01-19T21:30:19.462Z,4.30
2023-01-19T21:33:22.611Z,3.30
2023-01-19T21:36:25.836Z,4.53
2023-01-19T21:39:28.629Z,3.27
2023-01-19T21:42:30.710Z,7.38
2023-01-19T21:45:34.064Z,2.97
2023-01-19T21:48:36.164Z,4.43
2023-01-19T21:51:38.860Z,3.65
2023-01-19T21:54:41.116Z,3.05
2023-01-19T21:57:43.542Z,4.45
2023-01-19T22:00:45.725Z,6.60
2023-01-19T22:03:48.489Z,2.90
2023-01-19T22:06:51.010Z,3.30
2023-01-19T22:09:54.474Z,2.58
2023-01-19T22:12:57.153Z,2.55
2023-01-19T22:16:12.485Z,3.67
2023-01-19T22:19:15.930Z,2.80
2023-01-19T22:22:19.228Z,15.45
2023-01-19T22:25:25.345Z,2.85
2023-01-19T22:28:27.928Z,4.18
2023-01-19T22:31:31.036Z,3.75
2023-01-19T22:34:33.390Z,3.97
2023-01-19T22:37:36.953Z,1.80
2023-01-19T22:40:39.408Z,5.80
2023-01-19T22:43:41.541Z,3.10
2023-01-19T22:46:44.312Z,2.47
2023-01-19T22:49:46.321Z,2.95
2023-01-19T22:52:48.806Z,3.50
2023-01-19T22:55:50.871Z,2.90
2023-01-19T22:58:54.651Z,3.90
2023-01-19T23:01:57.506Z,5.28
2023-01-19T23:05:01.008Z,4.32
2023-01-19T23:08:03.271Z,4.13
2023-01-19T23:11:09.774Z,2.20
2023-01-19T23:14:17.478Z,7.68
2023-01-19T23:17:19.822Z,1.55
2023-01-19T23:20:22.325Z,4.18
2023-01-19T23:23:25.356Z,3.08
2023-01-19T23:26:32.415Z,1.88
2023-01-19T23:29:35.047Z,13.35
2023-01-19T23:32:37.532Z,1.50
2023-01-19T23:35:40.111Z,2.33
2023-01-19T23:38:42.868Z,2.00
2023-01-19T23:41:47.698Z,1.05
2023-01-19T23:44:49.744Z,8.07
2023-01-19T23:47:53.229Z,1.63
2023-01-19T23:50:55.419Z,1.35
2023-01-19T23:53:59.715Z,1.98
2023-01-19T23:57:02.024Z,2.42
